sensor_id;sensor_type;location;lat;lon;timestamp;temperature;humidity
71627;DHT22;59475;52.464;13.590;2022-08-18T00:02:23;21.84;71.11
71627;DHT22;59475;52.464;13.590;2022-08-18T00:04:50;21.81;71.29
71627;DHT22;59475;52.464;13.590;2022-08-18T00:07:22;21.83;71.25
71627;DHT22;59475;52.464;13.590;2022-08-18T00:09:48;21.80;71.32
71627;DHT22;59475;52.464;13.590;2022-08-18T00:14:47;21.74;71.88
71627;DHT22;59475;52.464;13.590;2022-08-18T00:17:13;21.73;71.77
71627;DHT22;59475;52.464;13.590;2022-08-18T00:19:39;21.70;71.89
71627;DHT22;59475;52.464;13.590;2022-08-18T00:22:05;21.68;72.25
71627;DHT22;59475;52.464;13.590;2022-08-18T00:24:30;21.67;72.31
71627;DHT22;59475;52.464;13.590;2022-08-18T00:26:56;21.64;72.51
71627;DHT22;59475;52.464;13.590;2022-08-18T00:29:22;21.63;73.13
71627;DHT22;59475;52.464;13.590;2022-08-18T00:31:47;21.61;72.73
71627;DHT22;59475;52.464;13.590;2022-08-18T00:34:13;21.56;72.73
71627;DHT22;59475;52.464;13.590;2022-08-18T00:36:38;21.53;73.05
71627;DHT22;59475;52.464;13.590;2022-08-18T00:39:04;21.49;73.14
71627;DHT22;59475;52.464;13.590;2022-08-18T00:41:29;21.50;73.33
71627;DHT22;59475;52.464;13.590;2022-08-18T00:43:55;21.47;73.46
71627;DHT22;59475;52.464;13.590;2022-08-18T00:46:32;21.49;73.60
71627;DHT22;59475;52.464;13.590;2022-08-18T00:48:58;21.49;73.51
71627;DHT22;59475;52.464;13.590;2022-08-18T00:51:46;21.45;73.44
71627;DHT22;59475;52.464;13.590;2022-08-18T00:54:20;21.40;73.43
71627;DHT22;59475;52.464;13.590;2022-08-18T00:56:52;21.38;73.62
71627;DHT22;59475;52.464;13.590;2022-08-18T01:02:11;21.30;74.19
71627;DHT22;59475;52.464;13.590;2022-08-18T01:05:00;21.25;74.49
71627;DHT22;59475;52.464;13.590;2022-08-18T01:07:32;21.19;74.52
71627;DHT22;59475;52.464;13.590;2022-08-18T01:10:00;21.15;74.40
71627;DHT22;59475;52.464;13.590;2022-08-18T01:12:27;21.09;74.73
71627;DHT22;59475;52.464;13.590;2022-08-18T01:14:53;21.06;74.88
71627;DHT22;59475;52.464;13.590;2022-08-18T01:17:20;21.02;75.07
71627;DHT22;59475;52.464;13.590;2022-08-18T01:20:26;21.03;75.30
71627;DHT22;59475;52.464;13.590;2022-08-18T01:23:15;21.02;75.29
71627;DHT22;59475;52.464;13.590;2022-08-18T01:25:42;20.99;75.40
71627;DHT22;59475;52.464;13.590;2022-08-18T01:28:33;20.94;75.44
71627;DHT22;59475;52.464;13.590;2022-08-18T01:31:00;20.92;75.62
71627;DHT22;59475;52.464;13.590;2022-08-18T01:33:39;20.91;75.55
71627;DHT22;59475;52.464;13.590;2022-08-18T01:36:18;20.88;75.49
71627;DHT22;59475;52.464;13.590;2022-08-18T01:38:46;20.85;75.50
71627;DHT22;59475;52.464;13.590;2022-08-18T01:41:12;20.84;75.94
71627;DHT22;59475;52.464;13.590;2022-08-18T01:43:37;20.81;76.09
71627;DHT22;59475;52.464;13.590;2022-08-18T01:46:04;20.71;76.29
71627;DHT22;59475;52.464;13.590;2022-08-18T01:48:31;20.68;76.36
71627;DHT22;59475;52.464;13.590;2022-08-18T01:51:02;20.61;76.58
71627;DHT22;59475;52.464;13.590;2022-08-18T01:53:28;20.58;76.76
71627;DHT22;59475;52.464;13.590;2022-08-18T01:55:54;20.60;76.90
71627;DHT22;59475;52.464;13.590;2022-08-18T01:58:20;20.56;77.04
71627;DHT22;59475;52.464;13.590;2022-08-18T02:00:53;20.54;77.13
71627;DHT22;59475;52.464;13.590;2022-08-18T02:03:23;20.48;77.16
71627;DHT22;59475;52.464;13.590;2022-08-18T02:05:52;20.44;77.56
71627;DHT22;59475;52.464;13.590;2022-08-18T02:08:20;20.41;77.50
71627;DHT22;59475;52.464;13.590;2022-08-18T02:10:46;20.40;77.74
71627;DHT22;59475;52.464;13.590;2022-08-18T02:13:11;20.37;77.60
71627;DHT22;59475;52.464;13.590;2022-08-18T02:15:37;20.32;77.77
71627;DHT22;59475;52.464;13.590;2022-08-18T02:18:02;20.27;77.98
71627;DHT22;59475;52.464;13.590;2022-08-18T02:20:28;20.25;77.99
71627;DHT22;59475;52.464;13.590;2022-08-18T02:22:53;20.22;78.18
71627;DHT22;59475;52.464;13.590;2022-08-18T02:25:19;20.22;78.09
71627;DHT22;59475;52.464;13.590;2022-08-18T02:27:46;20.19;78.24
71627;DHT22;59475;52.464;13.590;2022-08-18T02:30:14;20.18;78.38
71627;DHT22;59475;52.464;13.590;2022-08-18T02:32:40;20.15;78.41
71627;DHT22;59475;52.464;13.590;2022-08-18T02:35:06;20.15;78.39
71627;DHT22;59475;52.464;13.590;2022-08-18T02:37:32;20.16;78.31
71627;DHT22;59475;52.464;13.590;2022-08-18T02:39:58;20.18;78.31
71627;DHT22;59475;52.464;13.590;2022-08-18T02:42:23;20.16;78.20
71627;DHT22;59475;52.464;13.590;2022-08-18T02:44:50;20.19;78.17
71627;DHT22;59475;52.464;13.590;2022-08-18T02:47:20;20.15;78.49
71627;DHT22;59475;52.464;13.590;2022-08-18T02:49:46;20.16;78.25
71627;DHT22;59475;52.464;13.590;2022-08-18T02:52:11;20.16;77.44
71627;DHT22;59475;52.464;13.590;2022-08-18T02:54:37;20.15;77.95
71627;DHT22;59475;52.464;13.590;2022-08-18T02:57:09;20.12;78.05
71627;DHT22;59475;52.464;13.590;2022-08-18T02:59:36;20.09;78.09
71627;DHT22;59475;52.464;13.590;2022-08-18T03:02:03;20.06;78.16
71627;DHT22;59475;52.464;13.590;2022-08-18T03:04:29;20.09;78.16
71627;DHT22;59475;52.464;13.590;2022-08-18T03:06:57;20.05;78.15
71627;DHT22;59475;52.464;13.590;2022-08-18T03:09:23;20.02;78.14
71627;DHT22;59475;52.464;13.590;2022-08-18T03:11:48;19.98;78.29
71627;DHT22;59475;52.464;13.590;2022-08-18T03:14:14;19.93;78.36
71627;DHT22;59475;52.464;13.590;2022-08-18T03:16:44;19.93;78.33
71627;DHT22;59475;52.464;13.590;2022-08-18T03:19:10;19.92;78.52
71627;DHT22;59475;52.464;13.590;2022-08-18T03:21:39;19.93;78.85
71627;DHT22;59475;52.464;13.590;2022-08-18T03:24:04;19.91;78.84
71627;DHT22;59475;52.464;13.590;2022-08-18T03:26:31;19.88;78.77
71627;DHT22;59475;52.464;13.590;2022-08-18T03:28:57;19.83;78.91
71627;DHT22;59475;52.464;13.590;2022-08-18T03:31:25;19.82;79.14
71627;DHT22;59475;52.464;13.590;2022-08-18T03:33:52;19.78;79.21
71627;DHT22;59475;52.464;13.590;2022-08-18T03:36:21;19.75;79.52
71627;DHT22;59475;52.464;13.590;2022-08-18T03:38:47;19.70;79.42
71627;DHT22;59475;52.464;13.590;2022-08-18T03:41:16;19.67;79.52
71627;DHT22;59475;52.464;13.590;2022-08-18T03:43:41;19.67;79.38
71627;DHT22;59475;52.464;13.590;2022-08-18T03:46:09;19.64;79.62
71627;DHT22;59475;52.464;13.590;2022-08-18T03:48:36;19.63;79.60
71627;DHT22;59475;52.464;13.590;2022-08-18T03:53:44;19.54;79.65
71627;DHT22;59475;52.464;13.590;2022-08-18T03:56:12;19.58;79.90
71627;DHT22;59475;52.464;13.590;2022-08-18T03:58:46;19.57;80.26
71627;DHT22;59475;52.464;13.590;2022-08-18T04:01:14;19.57;79.79
71627;DHT22;59475;52.464;13.590;2022-08-18T04:03:41;19.54;79.87
71627;DHT22;59475;52.464;13.590;2022-08-18T04:06:07;19.50;79.94
71627;DHT22;59475;52.464;13.590;2022-08-18T04:08:32;19.49;80.02
71627;DHT22;59475;52.464;13.590;2022-08-18T04:10:58;19.46;80.28
71627;DHT22;59475;52.464;13.590;2022-08-18T04:13:23;19.38;80.06
71627;DHT22;59475;52.464;13.590;2022-08-18T04:15:48;19.36;80.21
71627;DHT22;59475;52.464;13.590;2022-08-18T04:18:14;19.36;80.70
71627;DHT22;59475;52.464;13.590;2022-08-18T04:20:39;19.41;80.61
71627;DHT22;59475;52.464;13.590;2022-08-18T04:23:04;19.51;80.57
71627;DHT22;59475;52.464;13.590;2022-08-18T04:25:30;19.53;80.36
71627;DHT22;59475;52.464;13.590;2022-08-18T04:27:57;19.55;79.98
71627;DHT22;59475;52.464;13.590;2022-08-18T04:30:25;19.58;79.80
71627;DHT22;59475;52.464;13.590;2022-08-18T04:32:50;19.58;79.62
71627;DHT22;59475;52.464;13.590;2022-08-18T04:35:16;19.58;79.57
71627;DHT22;59475;52.464;13.590;2022-08-18T04:37:42;19.67;79.71
71627;DHT22;59475;52.464;13.590;2022-08-18T04:40:09;19.70;79.81
71627;DHT22;59475;52.464;13.590;2022-08-18T04:42:35;19.74;79.52
71627;DHT22;59475;52.464;13.590;2022-08-18T04:45:00;19.81;78.43
71627;DHT22;59475;52.464;13.590;2022-08-18T04:47:26;19.79;78.18
71627;DHT22;59475;52.464;13.590;2022-08-18T04:49:51;19.83;78.22
71627;DHT22;59475;52.464;13.590;2022-08-18T04:52:17;19.92;78.42
71627;DHT22;59475;52.464;13.590;2022-08-18T04:55:01;20.04;78.57
71627;DHT22;59475;52.464;13.590;2022-08-18T04:57:28;20.12;78.75
71627;DHT22;59475;52.464;13.590;2022-08-18T04:59:55;20.15;77.81
71627;DHT22;59475;52.464;13.590;2022-08-18T05:02:22;20.18;77.63
71627;DHT22;59475;52.464;13.590;2022-08-18T05:04:47;20.19;77.84
71627;DHT22;59475;52.464;13.590;2022-08-18T05:07:15;20.32;78.29
71627;DHT22;59475;52.464;13.590;2022-08-18T05:09:42;20.41;78.24
71627;DHT22;59475;52.464;13.590;2022-08-18T05:12:09;20.54;78.31
71627;DHT22;59475;52.464;13.590;2022-08-18T05:14:36;20.68;77.93
71627;DHT22;59475;52.464;13.590;2022-08-18T05:17:03;20.78;77.52
71627;DHT22;59475;52.464;13.590;2022-08-18T05:19:29;20.87;77.20
71627;DHT22;59475;52.464;13.590;2022-08-18T05:21:56;20.92;76.31
71627;DHT22;59475;52.464;13.590;2022-08-18T05:24:22;20.99;76.73
71627;DHT22;59475;52.464;13.590;2022-08-18T05:26:49;21.11;76.97
71627;DHT22;59475;52.464;13.590;2022-08-18T05:29:15;21.26;76.69
71627;DHT22;59475;52.464;13.590;2022-08-18T05:31:41;21.39;76.33
71627;DHT22;59475;52.464;13.590;2022-08-18T05:34:06;21.53;74.79
71627;DHT22;59475;52.464;13.590;2022-08-18T05:41:34;21.73;73.00
71627;DHT22;59475;52.464;13.590;2022-08-18T05:44:01;21.78;72.47
71627;DHT22;59475;52.464;13.590;2022-08-18T05:49:04;21.97;72.10
71627;DHT22;59475;52.464;13.590;2022-08-18T05:51:37;22.06;71.39
71627;DHT22;59475;52.464;13.590;2022-08-18T05:54:04;22.11;71.87
71627;DHT22;59475;52.464;13.590;2022-08-18T05:56:50;22.15;71.62
71627;DHT22;59475;52.464;13.590;2022-08-18T05:59:31;22.21;71.25
71627;DHT22;59475;52.464;13.590;2022-08-18T06:02:05;22.23;70.90
71627;DHT22;59475;52.464;13.590;2022-08-18T06:04:41;22.31;70.53
71627;DHT22;59475;52.464;13.590;2022-08-18T06:07:12;22.43;69.53
71627;DHT22;59475;52.464;13.590;2022-08-18T06:09:42;22.59;68.91
71627;DHT22;59475;52.464;13.590;2022-08-18T06:12:27;22.76;68.27
71627;DHT22;59475;52.464;13.590;2022-08-18T06:15:02;22.88;68.19
71627;DHT22;59475;52.464;13.590;2022-08-18T06:20:40;23.18;67.18
71627;DHT22;59475;52.464;13.590;2022-08-18T06:23:28;23.26;67.23
71627;DHT22;59475;52.464;13.590;2022-08-18T06:28:39;23.61;65.38
71627;DHT22;59475;52.464;13.590;2022-08-18T06:31:16;23.72;65.81
71627;DHT22;59475;52.464;13.590;2022-08-18T06:39:16;24.16;63.04
71627;DHT22;59475;52.464;13.590;2022-08-18T06:41:46;24.17;63.43
71627;DHT22;59475;52.464;13.590;2022-08-18T06:44:21;24.20;63.54
71627;DHT22;59475;52.464;13.590;2022-08-18T06:46:54;24.49;63.28
71627;DHT22;59475;52.464;13.590;2022-08-18T06:49:37;24.79;60.92
71627;DHT22;59475;52.464;13.590;2022-08-18T06:54:52;25.66;59.54
71627;DHT22;59475;52.464;13.590;2022-08-18T06:57:24;25.84;58.20
71627;DHT22;59475;52.464;13.590;2022-08-18T06:59:57;26.10;58.25
71627;DHT22;59475;52.464;13.590;2022-08-18T07:03:06;26.24;58.38
71627;DHT22;59475;52.464;13.590;2022-08-18T07:05:33;26.69;56.39
71627;DHT22;59475;52.464;13.590;2022-08-18T07:08:11;27.02;55.44
71627;DHT22;59475;52.464;13.590;2022-08-18T07:10:45;27.15;55.09
71627;DHT22;59475;52.464;13.590;2022-08-18T07:15:42;27.36;55.55
71627;DHT22;59475;52.464;13.590;2022-08-18T07:18:10;27.58;54.97
71627;DHT22;59475;52.464;13.590;2022-08-18T07:20:45;27.78;54.28
71627;DHT22;59475;52.464;13.590;2022-08-18T07:23:33;27.99;53.61
71627;DHT22;59475;52.464;13.590;2022-08-18T07:26:10;28.12;51.31
71627;DHT22;59475;52.464;13.590;2022-08-18T07:34:11;28.75;50.30
71627;DHT22;59475;52.464;13.590;2022-08-18T07:36:43;29.08;49.45
71627;DHT22;59475;52.464;13.590;2022-08-18T07:39:21;29.21;48.53
71627;DHT22;59475;52.464;13.590;2022-08-18T07:42:09;29.04;48.82
71627;DHT22;59475;52.464;13.590;2022-08-18T07:44:50;29.19;49.00
71627;DHT22;59475;52.464;13.590;2022-08-18T07:47:22;29.14;49.52
71627;DHT22;59475;52.464;13.590;2022-08-18T07:49:50;29.18;50.46
71627;DHT22;59475;52.464;13.590;2022-08-18T07:52:37;29.01;49.74
71627;DHT22;59475;52.464;13.590;2022-08-18T07:57:56;28.91;50.26
71627;DHT22;59475;52.464;13.590;2022-08-18T08:11:42;28.63;50.84
71627;DHT22;59475;52.464;13.590;2022-08-18T08:14:38;28.36;51.40
71627;DHT22;59475;52.464;13.590;2022-08-18T08:17:23;28.37;51.99
71627;DHT22;59475;52.464;13.590;2022-08-18T08:22:21;28.33;51.92
71627;DHT22;59475;52.464;13.590;2022-08-18T08:25:02;28.67;51.31
71627;DHT22;59475;52.464;13.590;2022-08-18T08:28:05;28.91;50.82
71627;DHT22;59475;52.464;13.590;2022-08-18T08:30:42;29.16;51.20
71627;DHT22;59475;52.464;13.590;2022-08-18T08:33:23;29.43;50.83
71627;DHT22;59475;52.464;13.590;2022-08-18T08:35:55;29.62;50.85
71627;DHT22;59475;52.464;13.590;2022-08-18T08:38:49;29.80;50.50
71627;DHT22;59475;52.464;13.590;2022-08-18T08:41:39;30.15;48.59
71627;DHT22;59475;52.464;13.590;2022-08-18T08:44:10;30.42;48.31
71627;DHT22;59475;52.464;13.590;2022-08-18T08:46:44;30.56;47.37
71627;DHT22;59475;52.464;13.590;2022-08-18T08:49:23;30.83;47.09
71627;DHT22;59475;52.464;13.590;2022-08-18T08:51:55;31.57;46.54
71627;DHT22;59475;52.464;13.590;2022-08-18T08:56:50;32.85;42.60
71627;DHT22;59475;52.464;13.590;2022-08-18T08:59:19;33.08;42.20
71627;DHT22;59475;52.464;13.590;2022-08-18T09:04:46;32.51;42.54
71627;DHT22;59475;52.464;13.590;2022-08-18T09:13:04;32.76;42.03
71627;DHT22;59475;52.464;13.590;2022-08-18T09:23:43;35.24;39.66
71627;DHT22;59475;52.464;13.590;2022-08-18T09:26:25;35.50;36.67
71627;DHT22;59475;52.464;13.590;2022-08-18T09:28:54;35.39;36.87
71627;DHT22;59475;52.464;13.590;2022-08-18T09:31:22;35.14;36.27
71627;DHT22;59475;52.464;13.590;2022-08-18T09:37:11;34.84;36.21
71627;DHT22;59475;52.464;13.590;2022-08-18T09:39:42;35.19;36.80
71627;DHT22;59475;52.464;13.590;2022-08-18T09:42:36;35.39;36.30
71627;DHT22;59475;52.464;13.590;2022-08-18T09:52:57;35.27;35.43
71627;DHT22;59475;52.464;13.590;2022-08-18T10:06:38;35.56;33.94
71627;DHT22;59475;52.464;13.590;2022-08-18T10:20:41;34.73;33.45
71627;DHT22;59475;52.464;13.590;2022-08-18T10:23:42;35.21;33.80
71627;DHT22;59475;52.464;13.590;2022-08-18T10:28:59;35.14;33.67
71627;DHT22;59475;52.464;13.590;2022-08-18T10:31:25;34.87;33.97
71627;DHT22;59475;52.464;13.590;2022-08-18T10:34:09;34.92;33.49
71627;DHT22;59475;52.464;13.590;2022-08-18T10:36:54;35.65;32.67
71627;DHT22;59475;52.464;13.590;2022-08-18T10:39:43;36.45;31.62
71627;DHT22;59475;52.464;13.590;2022-08-18T10:44:41;37.16;31.45
71627;DHT22;59475;52.464;13.590;2022-08-18T10:47:08;37.90;30.86
71627;DHT22;59475;52.464;13.590;2022-08-18T10:49:34;38.49;28.40
71627;DHT22;59475;52.464;13.590;2022-08-18T10:52:21;38.91;27.33
71627;DHT22;59475;52.464;13.590;2022-08-18T10:57:56;38.06;27.04
71627;DHT22;59475;52.464;13.590;2022-08-18T11:01:00;37.57;26.60
71627;DHT22;59475;52.464;13.590;2022-08-18T11:06:08;38.90;27.73
71627;DHT22;59475;52.464;13.590;2022-08-18T11:08:45;38.91;25.06
71627;DHT22;59475;52.464;13.590;2022-08-18T11:11:12;38.47;27.33
71627;DHT22;59475;52.464;13.590;2022-08-18T11:13:51;38.50;26.91
71627;DHT22;59475;52.464;13.590;2022-08-18T11:19:14;39.18;25.86
71627;DHT22;59475;52.464;13.590;2022-08-18T11:21:45;39.43;26.33
71627;DHT22;59475;52.464;13.590;2022-08-18T11:24:15;39.93;25.44
71627;DHT22;59475;52.464;13.590;2022-08-18T11:29:36;39.91;25.78
71627;DHT22;59475;52.464;13.590;2022-08-18T11:34:45;40.24;24.81
71627;DHT22;59475;52.464;13.590;2022-08-18T11:39:57;39.42;24.82
71627;DHT22;59475;52.464;13.590;2022-08-18T11:42:30;38.88;25.11
71627;DHT22;59475;52.464;13.590;2022-08-18T11:45:14;38.41;25.72
71627;DHT22;59475;52.464;13.590;2022-08-18T11:50:27;37.81;27.81
71627;DHT22;59475;52.464;13.590;2022-08-18T11:52:53;37.50;29.47
71627;DHT22;59475;52.464;13.590;2022-08-18T11:55:31;37.14;28.37
71627;DHT22;59475;52.464;13.590;2022-08-18T11:58:00;36.85;28.55
71627;DHT22;59475;52.464;13.590;2022-08-18T12:03:18;35.73;29.88
71627;DHT22;59475;52.464;13.590;2022-08-18T12:05:57;35.73;32.07
71627;DHT22;59475;52.464;13.590;2022-08-18T12:08:34;35.80;30.34
71627;DHT22;59475;52.464;13.590;2022-08-18T12:11:25;36.05;31.30
71627;DHT22;59475;52.464;13.590;2022-08-18T12:14:07;36.41;28.84
71627;DHT22;59475;52.464;13.590;2022-08-18T12:19:03;37.06;28.39
71627;DHT22;59475;52.464;13.590;2022-08-18T12:21:28;37.30;28.13
71627;DHT22;59475;52.464;13.590;2022-08-18T12:23:54;37.24;28.65
71627;DHT22;59475;52.464;13.590;2022-08-18T12:26:19;37.48;28.10
71627;DHT22;59475;52.464;13.590;2022-08-18T12:28:45;37.30;27.18
71627;DHT22;59475;52.464;13.590;2022-08-18T12:31:10;37.09;27.99
71627;DHT22;59475;52.464;13.590;2022-08-18T12:33:36;37.14;27.81
71627;DHT22;59475;52.464;13.590;2022-08-18T12:36:05;36.89;28.84
71627;DHT22;59475;52.464;13.590;2022-08-18T12:38:31;36.92;28.70
71627;DHT22;59475;52.464;13.590;2022-08-18T12:40:57;36.55;29.46
71627;DHT22;59475;52.464;13.590;2022-08-18T12:43:24;36.61;29.24
71627;DHT22;59475;52.464;13.590;2022-08-18T12:45:50;36.51;29.44
71627;DHT22;59475;52.464;13.590;2022-08-18T12:48:16;36.80;28.37
71627;DHT22;59475;52.464;13.590;2022-08-18T12:50:41;36.90;28.78
71627;DHT22;59475;52.464;13.590;2022-08-18T12:53:07;36.78;27.91
71627;DHT22;59475;52.464;13.590;2022-08-18T12:55:40;37.00;30.37
71627;DHT22;59475;52.464;13.590;2022-08-18T12:58:07;37.27;28.57
71627;DHT22;59475;52.464;13.590;2022-08-18T13:00:33;37.40;29.06
71627;DHT22;59475;52.464;13.590;2022-08-18T13:02:59;37.29;29.16
71627;DHT22;59475;52.464;13.590;2022-08-18T13:05:24;36.87;28.79
71627;DHT22;59475;52.464;13.590;2022-08-18T13:07:50;36.62;29.10
71627;DHT22;59475;52.464;13.590;2022-08-18T13:10:15;35.89;30.19
71627;DHT22;59475;52.464;13.590;2022-08-18T13:12:40;35.34;31.14
71627;DHT22;59475;52.464;13.590;2022-08-18T13:15:07;34.91;31.16
71627;DHT22;59475;52.464;13.590;2022-08-18T13:17:36;34.43;31.24
71627;DHT22;59475;52.464;13.590;2022-08-18T13:20:08;34.66;32.53
71627;DHT22;59475;52.464;13.590;2022-08-18T13:22:36;34.94;31.85
71627;DHT22;59475;52.464;13.590;2022-08-18T13:25:05;35.19;31.63
71627;DHT22;59475;52.464;13.590;2022-08-18T13:27:35;35.28;30.76
71627;DHT22;59475;52.464;13.590;2022-08-18T13:30:06;35.14;31.82
71627;DHT22;59475;52.464;13.590;2022-08-18T13:32:32;34.90;31.66
71627;DHT22;59475;52.464;13.590;2022-08-18T13:34:58;34.80;31.98
71627;DHT22;59475;52.464;13.590;2022-08-18T13:37:23;34.90;31.03
71627;DHT22;59475;52.464;13.590;2022-08-18T13:39:50;34.76;32.73
71627;DHT22;59475;52.464;13.590;2022-08-18T13:42:16;34.71;32.41
71627;DHT22;59475;52.464;13.590;2022-08-18T13:44:41;34.53;31.78
71627;DHT22;59475;52.464;13.590;2022-08-18T13:47:06;34.55;32.73
71627;DHT22;59475;52.464;13.590;2022-08-18T13:49:32;34.55;33.17
71627;DHT22;59475;52.464;13.590;2022-08-18T13:51:57;34.61;32.03
71627;DHT22;59475;52.464;13.590;2022-08-18T13:54:28;34.80;33.48
71627;DHT22;59475;52.464;13.590;2022-08-18T13:56:56;34.80;31.23
71627;DHT22;59475;52.464;13.590;2022-08-18T13:59:22;34.61;32.93
71627;DHT22;59475;52.464;13.590;2022-08-18T14:01:50;34.67;32.12
71627;DHT22;59475;52.464;13.590;2022-08-18T14:04:16;34.64;32.51
71627;DHT22;59475;52.464;13.590;2022-08-18T14:06:42;34.63;32.54
71627;DHT22;59475;52.464;13.590;2022-08-18T14:09:07;34.63;32.47
71627;DHT22;59475;52.464;13.590;2022-08-18T14:11:34;34.67;31.70
71627;DHT22;59475;52.464;13.590;2022-08-18T14:14:02;34.61;33.55
71627;DHT22;59475;52.464;13.590;2022-08-18T14:16:29;34.56;32.41
71627;DHT22;59475;52.464;13.590;2022-08-18T14:18:54;34.55;34.07
71627;DHT22;59475;52.464;13.590;2022-08-18T14:21:44;34.55;33.21
71627;DHT22;59475;52.464;13.590;2022-08-18T14:24:29;34.37;32.26
71627;DHT22;59475;52.464;13.590;2022-08-18T14:27:14;34.22;32.98
71627;DHT22;59475;52.464;13.590;2022-08-18T14:29:39;34.22;33.91
71627;DHT22;59475;52.464;13.590;2022-08-18T14:32:08;34.18;33.54
71627;DHT22;59475;52.464;13.590;2022-08-18T14:34:34;33.99;33.43
71627;DHT22;59475;52.464;13.590;2022-08-18T14:36:59;33.78;34.00
71627;DHT22;59475;52.464;13.590;2022-08-18T14:39:25;33.61;34.64
71627;DHT22;59475;52.464;13.590;2022-08-18T14:41:51;33.44;35.13
71627;DHT22;59475;52.464;13.590;2022-08-18T14:44:16;33.42;35.30
71627;DHT22;59475;52.464;13.590;2022-08-18T14:46:42;33.27;35.12
71627;DHT22;59475;52.464;13.590;2022-08-18T14:49:12;33.25;35.84
71627;DHT22;59475;52.464;13.590;2022-08-18T14:51:38;33.29;35.95
71627;DHT22;59475;52.464;13.590;2022-08-18T14:54:08;33.29;36.44
71627;DHT22;59475;52.464;13.590;2022-08-18T14:56:33;33.12;36.10
71627;DHT22;59475;52.464;13.590;2022-08-18T14:58:59;32.92;35.79
71627;DHT22;59475;52.464;13.590;2022-08-18T15:01:24;32.75;36.48
71627;DHT22;59475;52.464;13.590;2022-08-18T15:03:49;32.48;38.15
71627;DHT22;59475;52.464;13.590;2022-08-18T15:06:14;32.28;39.20
71627;DHT22;59475;52.464;13.590;2022-08-18T15:08:40;32.02;39.07
71627;DHT22;59475;52.464;13.590;2022-08-18T15:11:06;31.66;39.61
71627;DHT22;59475;52.464;13.590;2022-08-18T15:13:31;31.58;40.17
71627;DHT22;59475;52.464;13.590;2022-08-18T15:15:57;31.45;40.12
71627;DHT22;59475;52.464;13.590;2022-08-18T15:18:23;31.43;40.00
71627;DHT22;59475;52.464;13.590;2022-08-18T15:20:50;31.34;40.31
71627;DHT22;59475;52.464;13.590;2022-08-18T15:23:34;31.07;41.28
71627;DHT22;59475;52.464;13.590;2022-08-18T15:26:21;31.04;41.04
71627;DHT22;59475;52.464;13.590;2022-08-18T15:28:48;31.01;41.47
71627;DHT22;59475;52.464;13.590;2022-08-18T15:31:14;31.00;41.86
71627;DHT22;59475;52.464;13.590;2022-08-18T15:33:39;31.00;41.79
71627;DHT22;59475;52.464;13.590;2022-08-18T15:36:06;31.00;42.82
71627;DHT22;59475;52.464;13.590;2022-08-18T15:38:32;30.97;42.56
71627;DHT22;59475;52.464;13.590;2022-08-18T15:40:58;30.96;42.43
71627;DHT22;59475;52.464;13.590;2022-08-18T15:43:28;31.06;42.77
71627;DHT22;59475;52.464;13.590;2022-08-18T15:45:56;31.11;42.74
71627;DHT22;59475;52.464;13.590;2022-08-18T15:48:22;31.10;42.76
71627;DHT22;59475;52.464;13.590;2022-08-18T15:50:49;31.00;41.98
71627;DHT22;59475;52.464;13.590;2022-08-18T15:53:20;30.93;42.67
71627;DHT22;59475;52.464;13.590;2022-08-18T15:55:46;30.91;43.60
71627;DHT22;59475;52.464;13.590;2022-08-18T15:58:12;30.63;44.04
71627;DHT22;59475;52.464;13.590;2022-08-18T16:00:41;30.28;45.23
71627;DHT22;59475;52.464;13.590;2022-08-18T16:03:08;29.97;45.18
71627;DHT22;59475;52.464;13.590;2022-08-18T16:05:40;29.56;46.22
71627;DHT22;59475;52.464;13.590;2022-08-18T16:08:07;29.42;45.90
71627;DHT22;59475;52.464;13.590;2022-08-18T16:10:35;29.26;46.60
71627;DHT22;59475;52.464;13.590;2022-08-18T16:13:02;28.98;49.62
71627;DHT22;59475;52.464;13.590;2022-08-18T16:15:32;28.05;58.97
71627;DHT22;59475;52.464;13.590;2022-08-18T16:17:57;27.12;62.99
71627;DHT22;59475;52.464;13.590;2022-08-18T16:20:23;26.33;66.38
71627;DHT22;59475;52.464;13.590;2022-08-18T16:22:49;25.61;69.30
71627;DHT22;59475;52.464;13.590;2022-08-18T16:25:14;25.21;72.67
71627;DHT22;59475;52.464;13.590;2022-08-18T16:27:41;24.86;74.83
71627;DHT22;59475;52.464;13.590;2022-08-18T16:30:12;24.54;76.13
71627;DHT22;59475;52.464;13.590;2022-08-18T16:32:39;24.14;79.17
71627;DHT22;59475;52.464;13.590;2022-08-18T16:35:05;23.62;81.19
71627;DHT22;59475;52.464;13.590;2022-08-18T16:37:30;23.26;81.79
71627;DHT22;59475;52.464;13.590;2022-08-18T16:39:56;22.87;84.69
71627;DHT22;59475;52.464;13.590;2022-08-18T16:42:22;22.66;85.10
71627;DHT22;59475;52.464;13.590;2022-08-18T16:44:47;22.23;86.26
71627;DHT22;59475;52.464;13.590;2022-08-18T16:47:13;21.74;87.96
71627;DHT22;59475;52.464;13.590;2022-08-18T16:49:44;21.39;90.34
71627;DHT22;59475;52.464;13.590;2022-08-18T16:52:13;21.28;90.27
71627;DHT22;59475;52.464;13.590;2022-08-18T16:54:42;21.23;89.78
71627;DHT22;59475;52.464;13.590;2022-08-18T16:57:08;21.32;89.52
71627;DHT22;59475;52.464;13.590;2022-08-18T16:59:33;21.30;91.41
71627;DHT22;59475;52.464;13.590;2022-08-18T17:02:17;21.21;90.54
71627;DHT22;59475;52.464;13.590;2022-08-18T17:05:02;21.15;91.01
71627;DHT22;59475;52.464;13.590;2022-08-18T17:07:29;21.16;90.91
71627;DHT22;59475;52.464;13.590;2022-08-18T17:09:56;21.23;90.43
71627;DHT22;59475;52.464;13.590;2022-08-18T17:12:23;21.25;90.74
71627;DHT22;59475;52.464;13.590;2022-08-18T17:14:48;21.30;90.58
71627;DHT22;59475;52.464;13.590;2022-08-18T17:17:14;21.32;91.88
71627;DHT22;59475;52.464;13.590;2022-08-18T17:19:42;21.38;90.87
71627;DHT22;59475;52.464;13.590;2022-08-18T17:22:07;21.38;89.87
71627;DHT22;59475;52.464;13.590;2022-08-18T17:24:32;21.42;90.39
71627;DHT22;59475;52.464;13.590;2022-08-18T17:27:18;21.42;90.22
71627;DHT22;59475;52.464;13.590;2022-08-18T17:30:12;21.42;90.36
71627;DHT22;59475;52.464;13.590;2022-08-18T17:32:55;21.42;89.35
71627;DHT22;59475;52.464;13.590;2022-08-18T17:35:39;21.40;90.48
71627;DHT22;59475;52.464;13.590;2022-08-18T17:38:15;21.32;90.73
71627;DHT22;59475;52.464;13.590;2022-08-18T17:40:48;21.32;90.63
71627;DHT22;59475;52.464;13.590;2022-08-18T17:43:18;21.30;90.41
71627;DHT22;59475;52.464;13.590;2022-08-18T17:45:46;21.30;89.85
71627;DHT22;59475;52.464;13.590;2022-08-18T17:48:17;21.33;90.55
71627;DHT22;59475;52.464;13.590;2022-08-18T17:51:03;21.35;90.58
71627;DHT22;59475;52.464;13.590;2022-08-18T17:53:50;21.33;90.37